<?xml version="1.0" encoding="UTF-8" standalone="no" ?>
<gpx xmlns="http://www.topografix.com/GPX/1/1" xmlns:xsi="http://www.w3.org/2001/XMLSchema-instance" xsi:schemaLocation="http://www.topografix.com/GPX/1/1 http://www.topografix.com/GPX/1/1/gpx.xsd" version="1.1" creator="VisuGPX - https://www.visugpx.com">
  <metadata>
    <name>secteur 2/ 7.4 km</name>
    <desc><![CDATA[

]]></desc>
  </metadata>
  <trk>
    <name><![CDATA[secteur 2/ 7.4 km]]></name>
    <extensions>
      <line xmlns="http://www.topografix.com/GPX/gpx_style/0/2">
        <color>ff000d</color>
        <width>4</width>
      </line>
    </extensions>
    <trkseg>
      <trkpt lat="43.2048" lon="5.99355">
        <ele>198.65</ele>
        <time>2022-09-17T07:29:18Z</time>
      </trkpt>
      <trkpt lat="43.20481" lon="5.99353">
        <ele>198.17</ele>
        <time>2022-09-17T07:29:19Z</time>
      </trkpt>
      <trkpt lat="43.20482" lon="5.99351">
        <ele>198.17</ele>
        <time>2022-09-17T07:29:20Z</time>
      </trkpt>
      <trkpt lat="43.20482" lon="5.99349">
        <ele>197.69</ele>
        <time>2022-09-17T07:29:21Z</time>
      </trkpt>
      <trkpt lat="43.20486" lon="5.99347">
        <ele>200.57</ele>
        <time>2022-09-17T07:29:41Z</time>
      </trkpt>
      <trkpt lat="43.20485" lon="5.99347">
        <ele>200.57</ele>
        <time>2022-09-17T07:30:15Z</time>
      </trkpt>
      <trkpt lat="43.20488" lon="5.99341">
        <ele>202.01</ele>
        <time>2022-09-17T07:31:15Z</time>
      </trkpt>
      <trkpt lat="43.20489" lon="5.9934">
        <ele>200.09</ele>
        <time>2022-09-17T07:31:44Z</time>
      </trkpt>
      <trkpt lat="43.2049" lon="5.99339">
        <ele>200.09</ele>
        <time>2022-09-17T07:31:45Z</time>
      </trkpt>
      <trkpt lat="43.20491" lon="5.99337">
        <ele>200.09</ele>
        <time>2022-09-17T07:31:46Z</time>
      </trkpt>
      <trkpt lat="43.20492" lon="5.99335">
        <ele>200.09</ele>
        <time>2022-09-17T07:31:47Z</time>
      </trkpt>
      <trkpt lat="43.20494" lon="5.99332">
        <ele>199.61</ele>
        <time>2022-09-17T07:31:48Z</time>
      </trkpt>
      <trkpt lat="43.20497" lon="5.99329">
        <ele>199.61</ele>
        <time>2022-09-17T07:31:49Z</time>
      </trkpt>
      <trkpt lat="43.20508" lon="5.99318">
        <ele>198.17</ele>
        <time>2022-09-17T07:31:53Z</time>
      </trkpt>
      <trkpt lat="43.20509" lon="5.99314">
        <ele>198.17</ele>
        <time>2022-09-17T07:31:54Z</time>
      </trkpt>
      <trkpt lat="43.20507" lon="5.99309">
        <ele>198.17</ele>
        <time>2022-09-17T07:31:55Z</time>
      </trkpt>
      <trkpt lat="43.20505" lon="5.99307">
        <ele>198.17</ele>
        <time>2022-09-17T07:31:56Z</time>
      </trkpt>
      <trkpt lat="43.20502" lon="5.99305">
        <ele>198.17</ele>
        <time>2022-09-17T07:31:57Z</time>
      </trkpt>
      <trkpt lat="43.20499" lon="5.99305">
        <ele>198.17</ele>
        <time>2022-09-17T07:31:58Z</time>
      </trkpt>
      <trkpt lat="43.20496" lon="5.99305">
        <ele>198.17</ele>
        <time>2022-09-17T07:31:59Z</time>
      </trkpt>
      <trkpt lat="43.20493" lon="5.99306">
        <ele>198.17</ele>
        <time>2022-09-17T07:32:00Z</time>
      </trkpt>
      <trkpt lat="43.2049" lon="5.99307">
        <ele>197.69</ele>
        <time>2022-09-17T07:32:01Z</time>
      </trkpt>
      <trkpt lat="43.20441" lon="5.9932">
        <ele>196.25</ele>
        <time>2022-09-17T07:32:14Z</time>
      </trkpt>
      <trkpt lat="43.20436" lon="5.99323">
        <ele>196.73</ele>
        <time>2022-09-17T07:32:15Z</time>
      </trkpt>
      <trkpt lat="43.20432" lon="5.99327">
        <ele>195.77</ele>
        <time>2022-09-17T07:32:16Z</time>
      </trkpt>
      <trkpt lat="43.20421" lon="5.99342">
        <ele>195.28</ele>
        <time>2022-09-17T07:32:19Z</time>
      </trkpt>
      <trkpt lat="43.20417" lon="5.99346">
        <ele>195.28</ele>
        <time>2022-09-17T07:32:20Z</time>
      </trkpt>
      <trkpt lat="43.20412" lon="5.99349">
        <ele>194.8</ele>
        <time>2022-09-17T07:32:21Z</time>
      </trkpt>
      <trkpt lat="43.20407" lon="5.99352">
        <ele>194.8</ele>
        <time>2022-09-17T07:32:22Z</time>
      </trkpt>
      <trkpt lat="43.20402" lon="5.99354">
        <ele>194.32</ele>
        <time>2022-09-17T07:32:23Z</time>
      </trkpt>
      <trkpt lat="43.20397" lon="5.99357">
        <ele>194.8</ele>
        <time>2022-09-17T07:32:24Z</time>
      </trkpt>
      <trkpt lat="43.20392" lon="5.99359">
        <ele>194.8</ele>
        <time>2022-09-17T07:32:25Z</time>
      </trkpt>
      <trkpt lat="43.20387" lon="5.9936">
        <ele>194.32</ele>
        <time>2022-09-17T07:32:26Z</time>
      </trkpt>
      <trkpt lat="43.20356" lon="5.99368">
        <ele>193.84</ele>
        <time>2022-09-17T07:32:32Z</time>
      </trkpt>
      <trkpt lat="43.20351" lon="5.99367">
        <ele>193.36</ele>
        <time>2022-09-17T07:32:33Z</time>
      </trkpt>
      <trkpt lat="43.20345" lon="5.99365">
        <ele>193.36</ele>
        <time>2022-09-17T07:32:34Z</time>
      </trkpt>
      <trkpt lat="43.20339" lon="5.99363">
        <ele>192.88</ele>
        <time>2022-09-17T07:32:35Z</time>
      </trkpt>
      <trkpt lat="43.20333" lon="5.99362">
        <ele>192.4</ele>
        <time>2022-09-17T07:32:36Z</time>
      </trkpt>
      <trkpt lat="43.20327" lon="5.99363">
        <ele>192.4</ele>
        <time>2022-09-17T07:32:37Z</time>
      </trkpt>
      <trkpt lat="43.20322" lon="5.99366">
        <ele>191.92</ele>
        <time>2022-09-17T07:32:38Z</time>
      </trkpt>
      <trkpt lat="43.20317" lon="5.9937">
        <ele>191.44</ele>
        <time>2022-09-17T07:32:39Z</time>
      </trkpt>
      <trkpt lat="43.20313" lon="5.99374">
        <ele>191.44</ele>
        <time>2022-09-17T07:32:40Z</time>
      </trkpt>
      <trkpt lat="43.20309" lon="5.99379">
        <ele>190.48</ele>
        <time>2022-09-17T07:32:41Z</time>
      </trkpt>
      <trkpt lat="43.20305" lon="5.99382">
        <ele>190.48</ele>
        <time>2022-09-17T07:32:42Z</time>
      </trkpt>
      <trkpt lat="43.203" lon="5.99385">
        <ele>191.44</ele>
        <time>2022-09-17T07:32:43Z</time>
      </trkpt>
      <trkpt lat="43.20295" lon="5.99385">
        <ele>191.44</ele>
        <time>2022-09-17T07:32:44Z</time>
      </trkpt>
      <trkpt lat="43.2029" lon="5.99383">
        <ele>191.44</ele>
        <time>2022-09-17T07:32:45Z</time>
      </trkpt>
      <trkpt lat="43.20287" lon="5.99378">
        <ele>191.44</ele>
        <time>2022-09-17T07:32:46Z</time>
      </trkpt>
      <trkpt lat="43.20284" lon="5.99372">
        <ele>190.96</ele>
        <time>2022-09-17T07:32:47Z</time>
      </trkpt>
      <trkpt lat="43.20281" lon="5.99366">
        <ele>190.48</ele>
        <time>2022-09-17T07:32:48Z</time>
      </trkpt>
      <trkpt lat="43.20277" lon="5.99364">
        <ele>190</ele>
        <time>2022-09-17T07:32:49Z</time>
      </trkpt>
      <trkpt lat="43.20272" lon="5.99364">
        <ele>189.52</ele>
        <time>2022-09-17T07:32:50Z</time>
      </trkpt>
      <trkpt lat="43.20268" lon="5.99368">
        <ele>189.04</ele>
        <time>2022-09-17T07:32:51Z</time>
      </trkpt>
      <trkpt lat="43.20265" lon="5.99373">
        <ele>189.04</ele>
        <time>2022-09-17T07:32:52Z</time>
      </trkpt>
      <trkpt lat="43.20261" lon="5.99379">
        <ele>189.04</ele>
        <time>2022-09-17T07:32:53Z</time>
      </trkpt>
      <trkpt lat="43.20257" lon="5.99384">
        <ele>188.08</ele>
        <time>2022-09-17T07:32:54Z</time>
      </trkpt>
      <trkpt lat="43.20252" lon="5.99388">
        <ele>188.56</ele>
        <time>2022-09-17T07:32:55Z</time>
      </trkpt>
      <trkpt lat="43.20247" lon="5.99391">
        <ele>188.56</ele>
        <time>2022-09-17T07:32:56Z</time>
      </trkpt>
      <trkpt lat="43.2024" lon="5.99391">
        <ele>188.56</ele>
        <time>2022-09-17T07:32:57Z</time>
      </trkpt>
      <trkpt lat="43.20235" lon="5.99389">
        <ele>189.04</ele>
        <time>2022-09-17T07:32:58Z</time>
      </trkpt>
      <trkpt lat="43.20229" lon="5.99385">
        <ele>189.04</ele>
        <time>2022-09-17T07:32:59Z</time>
      </trkpt>
      <trkpt lat="43.20224" lon="5.99382">
        <ele>188.56</ele>
        <time>2022-09-17T07:33:00Z</time>
      </trkpt>
      <trkpt lat="43.20219" lon="5.99379">
        <ele>188.56</ele>
        <time>2022-09-17T07:33:01Z</time>
      </trkpt>
      <trkpt lat="43.20215" lon="5.9938">
        <ele>188.56</ele>
        <time>2022-09-17T07:33:02Z</time>
      </trkpt>
      <trkpt lat="43.20212" lon="5.99383">
        <ele>188.08</ele>
        <time>2022-09-17T07:33:03Z</time>
      </trkpt>
      <trkpt lat="43.2021" lon="5.99387">
        <ele>187.59</ele>
        <time>2022-09-17T07:33:04Z</time>
      </trkpt>
      <trkpt lat="43.2021" lon="5.99392">
        <ele>187.59</ele>
        <time>2022-09-17T07:33:05Z</time>
      </trkpt>
      <trkpt lat="43.20211" lon="5.99397">
        <ele>187.59</ele>
        <time>2022-09-17T07:33:06Z</time>
      </trkpt>
      <trkpt lat="43.20213" lon="5.99402">
        <ele>187.59</ele>
        <time>2022-09-17T07:33:07Z</time>
      </trkpt>
      <trkpt lat="43.20219" lon="5.99418">
        <ele>187.59</ele>
        <time>2022-09-17T07:33:10Z</time>
      </trkpt>
      <trkpt lat="43.20221" lon="5.99424">
        <ele>188.08</ele>
        <time>2022-09-17T07:33:11Z</time>
      </trkpt>
      <trkpt lat="43.20222" lon="5.99431">
        <ele>188.56</ele>
        <time>2022-09-17T07:33:12Z</time>
      </trkpt>
      <trkpt lat="43.20222" lon="5.99438">
        <ele>188.56</ele>
        <time>2022-09-17T07:33:13Z</time>
      </trkpt>
      <trkpt lat="43.20221" lon="5.99445">
        <ele>188.56</ele>
        <time>2022-09-17T07:33:14Z</time>
      </trkpt>
      <trkpt lat="43.2022" lon="5.99453">
        <ele>188.08</ele>
        <time>2022-09-17T07:33:15Z</time>
      </trkpt>
      <trkpt lat="43.20219" lon="5.9946">
        <ele>188.08</ele>
        <time>2022-09-17T07:33:16Z</time>
      </trkpt>
      <trkpt lat="43.20217" lon="5.99467">
        <ele>187.59</ele>
        <time>2022-09-17T07:33:17Z</time>
      </trkpt>
      <trkpt lat="43.20213" lon="5.99474">
        <ele>187.11</ele>
        <time>2022-09-17T07:33:18Z</time>
      </trkpt>
      <trkpt lat="43.20208" lon="5.99479">
        <ele>186.63</ele>
        <time>2022-09-17T07:33:19Z</time>
      </trkpt>
      <trkpt lat="43.20203" lon="5.99485">
        <ele>186.63</ele>
        <time>2022-09-17T07:33:20Z</time>
      </trkpt>
      <trkpt lat="43.20169" lon="5.99516">
        <ele>184.71</ele>
        <time>2022-09-17T07:33:26Z</time>
      </trkpt>
      <trkpt lat="43.20163" lon="5.99521">
        <ele>184.71</ele>
        <time>2022-09-17T07:33:27Z</time>
      </trkpt>
      <trkpt lat="43.20147" lon="5.99537">
        <ele>184.71</ele>
        <time>2022-09-17T07:33:30Z</time>
      </trkpt>
      <trkpt lat="43.2014" lon="5.99541">
        <ele>184.71</ele>
        <time>2022-09-17T07:33:31Z</time>
      </trkpt>
      <trkpt lat="43.20134" lon="5.99543">
        <ele>185.67</ele>
        <time>2022-09-17T07:33:32Z</time>
      </trkpt>
      <trkpt lat="43.20127" lon="5.99545">
        <ele>185.19</ele>
        <time>2022-09-17T07:33:33Z</time>
      </trkpt>
      <trkpt lat="43.2012" lon="5.99545">
        <ele>185.19</ele>
        <time>2022-09-17T07:33:34Z</time>
      </trkpt>
      <trkpt lat="43.20113" lon="5.99545">
        <ele>185.19</ele>
        <time>2022-09-17T07:33:35Z</time>
      </trkpt>
      <trkpt lat="43.20107" lon="5.99544">
        <ele>185.67</ele>
        <time>2022-09-17T07:33:36Z</time>
      </trkpt>
      <trkpt lat="43.201" lon="5.99543">
        <ele>185.67</ele>
        <time>2022-09-17T07:33:37Z</time>
      </trkpt>
      <trkpt lat="43.20094" lon="5.99541">
        <ele>185.19</ele>
        <time>2022-09-17T07:33:38Z</time>
      </trkpt>
      <trkpt lat="43.20088" lon="5.99541">
        <ele>184.23</ele>
        <time>2022-09-17T07:33:39Z</time>
      </trkpt>
      <trkpt lat="43.20082" lon="5.99543">
        <ele>184.23</ele>
        <time>2022-09-17T07:33:40Z</time>
      </trkpt>
      <trkpt lat="43.20079" lon="5.99548">
        <ele>183.75</ele>
        <time>2022-09-17T07:33:41Z</time>
      </trkpt>
      <trkpt lat="43.20078" lon="5.99555">
        <ele>183.27</ele>
        <time>2022-09-17T07:33:42Z</time>
      </trkpt>
      <trkpt lat="43.20079" lon="5.99561">
        <ele>183.27</ele>
        <time>2022-09-17T07:33:43Z</time>
      </trkpt>
      <trkpt lat="43.20082" lon="5.99567">
        <ele>182.79</ele>
        <time>2022-09-17T07:33:44Z</time>
      </trkpt>
      <trkpt lat="43.20084" lon="5.99573">
        <ele>182.79</ele>
        <time>2022-09-17T07:33:45Z</time>
      </trkpt>
      <trkpt lat="43.20085" lon="5.9958">
        <ele>182.79</ele>
        <time>2022-09-17T07:33:46Z</time>
      </trkpt>
      <trkpt lat="43.20086" lon="5.99587">
        <ele>183.27</ele>
        <time>2022-09-17T07:33:47Z</time>
      </trkpt>
      <trkpt lat="43.20086" lon="5.99595">
        <ele>183.27</ele>
        <time>2022-09-17T07:33:48Z</time>
      </trkpt>
      <trkpt lat="43.20085" lon="5.99602">
        <ele>183.27</ele>
        <time>2022-09-17T07:33:49Z</time>
      </trkpt>
      <trkpt lat="43.20082" lon="5.99608">
        <ele>183.27</ele>
        <time>2022-09-17T07:33:50Z</time>
      </trkpt>
      <trkpt lat="43.20078" lon="5.99614">
        <ele>183.27</ele>
        <time>2022-09-17T07:33:51Z</time>
      </trkpt>
      <trkpt lat="43.20074" lon="5.99619">
        <ele>183.27</ele>
        <time>2022-09-17T07:33:52Z</time>
      </trkpt>
      <trkpt lat="43.20069" lon="5.99623">
        <ele>183.27</ele>
        <time>2022-09-17T07:33:53Z</time>
      </trkpt>
      <trkpt lat="43.20064" lon="5.99627">
        <ele>183.27</ele>
        <time>2022-09-17T07:33:54Z</time>
      </trkpt>
      <trkpt lat="43.20058" lon="5.9963">
        <ele>183.27</ele>
        <time>2022-09-17T07:33:55Z</time>
      </trkpt>
      <trkpt lat="43.20043" lon="5.99639">
        <ele>183.27</ele>
        <time>2022-09-17T07:33:58Z</time>
      </trkpt>
      <trkpt lat="43.20038" lon="5.99644">
        <ele>182.79</ele>
        <time>2022-09-17T07:33:59Z</time>
      </trkpt>
      <trkpt lat="43.20035" lon="5.9965">
        <ele>182.79</ele>
        <time>2022-09-17T07:34:00Z</time>
      </trkpt>
      <trkpt lat="43.20034" lon="5.99657">
        <ele>182.79</ele>
        <time>2022-09-17T07:34:01Z</time>
      </trkpt>
      <trkpt lat="43.20034" lon="5.99664">
        <ele>182.79</ele>
        <time>2022-09-17T07:34:02Z</time>
      </trkpt>
      <trkpt lat="43.20036" lon="5.99672">
        <ele>182.79</ele>
        <time>2022-09-17T07:34:03Z</time>
      </trkpt>
      <trkpt lat="43.20039" lon="5.99678">
        <ele>183.27</ele>
        <time>2022-09-17T07:34:04Z</time>
      </trkpt>
      <trkpt lat="43.20048" lon="5.99697">
        <ele>183.75</ele>
        <time>2022-09-17T07:34:07Z</time>
      </trkpt>
      <trkpt lat="43.20053" lon="5.9971">
        <ele>183.75</ele>
        <time>2022-09-17T07:34:09Z</time>
      </trkpt>
      <trkpt lat="43.20057" lon="5.99732">
        <ele>182.79</ele>
        <time>2022-09-17T07:34:12Z</time>
      </trkpt>
      <trkpt lat="43.20058" lon="5.99748">
        <ele>181.83</ele>
        <time>2022-09-17T07:34:14Z</time>
      </trkpt>
      <trkpt lat="43.20056" lon="5.99756">
        <ele>181.35</ele>
        <time>2022-09-17T07:34:15Z</time>
      </trkpt>
      <trkpt lat="43.20054" lon="5.99763">
        <ele>180.38</ele>
        <time>2022-09-17T07:34:16Z</time>
      </trkpt>
      <trkpt lat="43.20047" lon="5.99785">
        <ele>181.35</ele>
        <time>2022-09-17T07:34:19Z</time>
      </trkpt>
      <trkpt lat="43.20043" lon="5.99792">
        <ele>180.87</ele>
        <time>2022-09-17T07:34:20Z</time>
      </trkpt>
      <trkpt lat="43.20039" lon="5.99796">
        <ele>180.87</ele>
        <time>2022-09-17T07:34:21Z</time>
      </trkpt>
      <trkpt lat="43.20035" lon="5.998">
        <ele>181.35</ele>
        <time>2022-09-17T07:34:22Z</time>
      </trkpt>
      <trkpt lat="43.20029" lon="5.998">
        <ele>181.35</ele>
        <time>2022-09-17T07:34:23Z</time>
      </trkpt>
      <trkpt lat="43.20024" lon="5.998">
        <ele>181.83</ele>
        <time>2022-09-17T07:34:24Z</time>
      </trkpt>
      <trkpt lat="43.20019" lon="5.99799">
        <ele>181.35</ele>
        <time>2022-09-17T07:34:25Z</time>
      </trkpt>
      <trkpt lat="43.20015" lon="5.99796">
        <ele>181.35</ele>
        <time>2022-09-17T07:34:26Z</time>
      </trkpt>
      <trkpt lat="43.20011" lon="5.99793">
        <ele>181.83</ele>
        <time>2022-09-17T07:34:27Z</time>
      </trkpt>
      <trkpt lat="43.20007" lon="5.99789">
        <ele>181.83</ele>
        <time>2022-09-17T07:34:28Z</time>
      </trkpt>
      <trkpt lat="43.19947" lon="5.99726">
        <ele>180.87</ele>
        <time>2022-09-17T07:34:41Z</time>
      </trkpt>
      <trkpt lat="43.19887" lon="5.9966">
        <ele>181.83</ele>
        <time>2022-09-17T07:34:54Z</time>
      </trkpt>
      <trkpt lat="43.19883" lon="5.99654">
        <ele>182.31</ele>
        <time>2022-09-17T07:34:55Z</time>
      </trkpt>
      <trkpt lat="43.1988" lon="5.99647">
        <ele>182.79</ele>
        <time>2022-09-17T07:34:56Z</time>
      </trkpt>
      <trkpt lat="43.19875" lon="5.99633">
        <ele>182.79</ele>
        <time>2022-09-17T07:34:58Z</time>
      </trkpt>
      <trkpt lat="43.19871" lon="5.9961">
        <ele>179.42</ele>
        <time>2022-09-17T07:35:01Z</time>
      </trkpt>
      <trkpt lat="43.19868" lon="5.99605">
        <ele>178.94</ele>
        <time>2022-09-17T07:35:02Z</time>
      </trkpt>
      <trkpt lat="43.19864" lon="5.99602">
        <ele>178.46</ele>
        <time>2022-09-17T07:35:03Z</time>
      </trkpt>
      <trkpt lat="43.19859" lon="5.99602">
        <ele>177.98</ele>
        <time>2022-09-17T07:35:04Z</time>
      </trkpt>
      <trkpt lat="43.19854" lon="5.99604">
        <ele>177.02</ele>
        <time>2022-09-17T07:35:05Z</time>
      </trkpt>
      <trkpt lat="43.1985" lon="5.99608">
        <ele>176.54</ele>
        <time>2022-09-17T07:35:06Z</time>
      </trkpt>
      <trkpt lat="43.19845" lon="5.99612">
        <ele>176.06</ele>
        <time>2022-09-17T07:35:07Z</time>
      </trkpt>
      <trkpt lat="43.1984" lon="5.99616">
        <ele>175.58</ele>
        <time>2022-09-17T07:35:08Z</time>
      </trkpt>
      <trkpt lat="43.19835" lon="5.9962">
        <ele>175.1</ele>
        <time>2022-09-17T07:35:09Z</time>
      </trkpt>
      <trkpt lat="43.19829" lon="5.99622">
        <ele>174.62</ele>
        <time>2022-09-17T07:35:10Z</time>
      </trkpt>
      <trkpt lat="43.19823" lon="5.99625">
        <ele>174.14</ele>
        <time>2022-09-17T07:35:11Z</time>
      </trkpt>
      <trkpt lat="43.19817" lon="5.99625">
        <ele>173.66</ele>
        <time>2022-09-17T07:35:12Z</time>
      </trkpt>
      <trkpt lat="43.19812" lon="5.99625">
        <ele>173.17</ele>
        <time>2022-09-17T07:35:13Z</time>
      </trkpt>
      <trkpt lat="43.198" lon="5.99625">
        <ele>173.17</ele>
        <time>2022-09-17T07:35:15Z</time>
      </trkpt>
      <trkpt lat="43.19795" lon="5.99623">
        <ele>172.69</ele>
        <time>2022-09-17T07:35:16Z</time>
      </trkpt>
      <trkpt lat="43.1978" lon="5.99613">
        <ele>172.69</ele>
        <time>2022-09-17T07:35:19Z</time>
      </trkpt>
      <trkpt lat="43.19732" lon="5.99554">
        <ele>174.62</ele>
        <time>2022-09-17T07:35:31Z</time>
      </trkpt>
      <trkpt lat="43.19718" lon="5.9953">
        <ele>174.62</ele>
        <time>2022-09-17T07:35:35Z</time>
      </trkpt>
      <trkpt lat="43.19716" lon="5.99523">
        <ele>175.58</ele>
        <time>2022-09-17T07:35:36Z</time>
      </trkpt>
      <trkpt lat="43.19716" lon="5.99516">
        <ele>175.58</ele>
        <time>2022-09-17T07:35:37Z</time>
      </trkpt>
      <trkpt lat="43.19716" lon="5.99509">
        <ele>175.58</ele>
        <time>2022-09-17T07:35:38Z</time>
      </trkpt>
      <trkpt lat="43.19716" lon="5.99502">
        <ele>175.1</ele>
        <time>2022-09-17T07:35:39Z</time>
      </trkpt>
      <trkpt lat="43.19715" lon="5.99496">
        <ele>174.62</ele>
        <time>2022-09-17T07:35:40Z</time>
      </trkpt>
      <trkpt lat="43.19711" lon="5.99491">
        <ele>174.14</ele>
        <time>2022-09-17T07:35:41Z</time>
      </trkpt>
      <trkpt lat="43.19707" lon="5.99488">
        <ele>173.66</ele>
        <time>2022-09-17T07:35:42Z</time>
      </trkpt>
      <trkpt lat="43.19702" lon="5.99487">
        <ele>173.17</ele>
        <time>2022-09-17T07:35:43Z</time>
      </trkpt>
      <trkpt lat="43.19698" lon="5.99489">
        <ele>172.69</ele>
        <time>2022-09-17T07:35:44Z</time>
      </trkpt>
      <trkpt lat="43.19694" lon="5.99493">
        <ele>172.69</ele>
        <time>2022-09-17T07:35:45Z</time>
      </trkpt>
      <trkpt lat="43.1969" lon="5.99498">
        <ele>172.69</ele>
        <time>2022-09-17T07:35:46Z</time>
      </trkpt>
      <trkpt lat="43.19688" lon="5.99502">
        <ele>172.21</ele>
        <time>2022-09-17T07:35:47Z</time>
      </trkpt>
      <trkpt lat="43.19685" lon="5.99507">
        <ele>172.21</ele>
        <time>2022-09-17T07:35:48Z</time>
      </trkpt>
      <trkpt lat="43.19683" lon="5.99512">
        <ele>172.21</ele>
        <time>2022-09-17T07:35:49Z</time>
      </trkpt>
      <trkpt lat="43.19677" lon="5.99574">
        <ele>172.21</ele>
        <time>2022-09-17T07:36:01Z</time>
      </trkpt>
      <trkpt lat="43.19677" lon="5.99592">
        <ele>172.21</ele>
        <time>2022-09-17T07:36:04Z</time>
      </trkpt>
      <trkpt lat="43.19679" lon="5.99616">
        <ele>173.66</ele>
        <time>2022-09-17T07:36:08Z</time>
      </trkpt>
      <trkpt lat="43.19692" lon="5.9966">
        <ele>176.54</ele>
        <time>2022-09-17T07:36:16Z</time>
      </trkpt>
      <trkpt lat="43.19709" lon="5.99709">
        <ele>179.9</ele>
        <time>2022-09-17T07:36:26Z</time>
      </trkpt>
      <trkpt lat="43.1972" lon="5.99752">
        <ele>182.79</ele>
        <time>2022-09-17T07:36:34Z</time>
      </trkpt>
      <trkpt lat="43.19748" lon="5.99795">
        <ele>185.19</ele>
        <time>2022-09-17T07:36:46Z</time>
      </trkpt>
      <trkpt lat="43.1975" lon="5.99798">
        <ele>185.67</ele>
        <time>2022-09-17T07:36:47Z</time>
      </trkpt>
      <trkpt lat="43.19752" lon="5.99801">
        <ele>186.63</ele>
        <time>2022-09-17T07:36:48Z</time>
      </trkpt>
      <trkpt lat="43.19754" lon="5.99804">
        <ele>186.63</ele>
        <time>2022-09-17T07:36:49Z</time>
      </trkpt>
      <trkpt lat="43.19756" lon="5.99807">
        <ele>187.11</ele>
        <time>2022-09-17T07:36:50Z</time>
      </trkpt>
      <trkpt lat="43.19758" lon="5.99811">
        <ele>187.59</ele>
        <time>2022-09-17T07:36:51Z</time>
      </trkpt>
      <trkpt lat="43.19759" lon="5.99814">
        <ele>188.56</ele>
        <time>2022-09-17T07:36:52Z</time>
      </trkpt>
      <trkpt lat="43.19761" lon="5.99818">
        <ele>189.04</ele>
        <time>2022-09-17T07:36:53Z</time>
      </trkpt>
      <trkpt lat="43.19761" lon="5.99821">
        <ele>189.04</ele>
        <time>2022-09-17T07:36:54Z</time>
      </trkpt>
      <trkpt lat="43.1976" lon="5.99825">
        <ele>189.52</ele>
        <time>2022-09-17T07:36:55Z</time>
      </trkpt>
      <trkpt lat="43.19759" lon="5.99827">
        <ele>189.52</ele>
        <time>2022-09-17T07:36:56Z</time>
      </trkpt>
      <trkpt lat="43.19757" lon="5.9983">
        <ele>189.52</ele>
        <time>2022-09-17T07:36:57Z</time>
      </trkpt>
      <trkpt lat="43.19753" lon="5.99835">
        <ele>190</ele>
        <time>2022-09-17T07:36:59Z</time>
      </trkpt>
      <trkpt lat="43.19749" lon="5.99836">
        <ele>190</ele>
        <time>2022-09-17T07:37:00Z</time>
      </trkpt>
      <trkpt lat="43.19746" lon="5.99837">
        <ele>190.48</ele>
        <time>2022-09-17T07:37:01Z</time>
      </trkpt>
      <trkpt lat="43.19743" lon="5.99837">
        <ele>190.48</ele>
        <time>2022-09-17T07:37:02Z</time>
      </trkpt>
      <trkpt lat="43.1974" lon="5.99836">
        <ele>190.96</ele>
        <time>2022-09-17T07:37:03Z</time>
      </trkpt>
      <trkpt lat="43.19737" lon="5.99835">
        <ele>190.96</ele>
        <time>2022-09-17T07:37:04Z</time>
      </trkpt>
      <trkpt lat="43.19734" lon="5.99833">
        <ele>190.96</ele>
        <time>2022-09-17T07:37:05Z</time>
      </trkpt>
      <trkpt lat="43.19723" lon="5.99828">
        <ele>189.52</ele>
        <time>2022-09-17T07:37:08Z</time>
      </trkpt>
      <trkpt lat="43.1972" lon="5.99825">
        <ele>189.52</ele>
        <time>2022-09-17T07:37:09Z</time>
      </trkpt>
      <trkpt lat="43.19716" lon="5.99822">
        <ele>190</ele>
        <time>2022-09-17T07:37:10Z</time>
      </trkpt>
      <trkpt lat="43.19712" lon="5.99819">
        <ele>190</ele>
        <time>2022-09-17T07:37:11Z</time>
      </trkpt>
      <trkpt lat="43.19709" lon="5.99816">
        <ele>190</ele>
        <time>2022-09-17T07:37:12Z</time>
      </trkpt>
      <trkpt lat="43.19705" lon="5.99814">
        <ele>190</ele>
        <time>2022-09-17T07:37:13Z</time>
      </trkpt>
      <trkpt lat="43.19701" lon="5.99812">
        <ele>190.48</ele>
        <time>2022-09-17T07:37:14Z</time>
      </trkpt>
      <trkpt lat="43.19694" lon="5.9981">
        <ele>187.59</ele>
        <time>2022-09-17T07:37:16Z</time>
      </trkpt>
      <trkpt lat="43.19689" lon="5.9981">
        <ele>187.11</ele>
        <time>2022-09-17T07:37:17Z</time>
      </trkpt>
      <trkpt lat="43.19686" lon="5.99812">
        <ele>186.63</ele>
        <time>2022-09-17T07:37:18Z</time>
      </trkpt>
      <trkpt lat="43.19675" lon="5.99817">
        <ele>186.15</ele>
        <time>2022-09-17T07:37:21Z</time>
      </trkpt>
      <trkpt lat="43.19665" lon="5.99826">
        <ele>186.15</ele>
        <time>2022-09-17T07:37:24Z</time>
      </trkpt>
      <trkpt lat="43.1965" lon="5.99838">
        <ele>186.15</ele>
        <time>2022-09-17T07:37:28Z</time>
      </trkpt>
      <trkpt lat="43.19646" lon="5.9984">
        <ele>186.15</ele>
        <time>2022-09-17T07:37:29Z</time>
      </trkpt>
      <trkpt lat="43.19642" lon="5.99842">
        <ele>186.63</ele>
        <time>2022-09-17T07:37:30Z</time>
      </trkpt>
      <trkpt lat="43.19638" lon="5.99844">
        <ele>186.63</ele>
        <time>2022-09-17T07:37:31Z</time>
      </trkpt>
      <trkpt lat="43.19634" lon="5.99845">
        <ele>186.63</ele>
        <time>2022-09-17T07:37:32Z</time>
      </trkpt>
      <trkpt lat="43.19625" lon="5.99845">
        <ele>186.63</ele>
        <time>2022-09-17T07:37:34Z</time>
      </trkpt>
      <trkpt lat="43.19621" lon="5.99844">
        <ele>187.11</ele>
        <time>2022-09-17T07:37:35Z</time>
      </trkpt>
      <trkpt lat="43.19579" lon="5.99824">
        <ele>191.44</ele>
        <time>2022-09-17T07:37:47Z</time>
      </trkpt>
      <trkpt lat="43.1956" lon="5.99838">
        <ele>191.92</ele>
        <time>2022-09-17T07:37:53Z</time>
      </trkpt>
      <trkpt lat="43.19559" lon="5.99843">
        <ele>192.4</ele>
        <time>2022-09-17T07:37:54Z</time>
      </trkpt>
      <trkpt lat="43.19559" lon="5.99847">
        <ele>192.88</ele>
        <time>2022-09-17T07:37:55Z</time>
      </trkpt>
      <trkpt lat="43.19572" lon="5.99899">
        <ele>197.21</ele>
        <time>2022-09-17T07:38:06Z</time>
      </trkpt>
      <trkpt lat="43.19584" lon="5.99962">
        <ele>198.65</ele>
        <time>2022-09-17T07:38:19Z</time>
      </trkpt>
      <trkpt lat="43.19584" lon="5.99967">
        <ele>198.65</ele>
        <time>2022-09-17T07:38:20Z</time>
      </trkpt>
      <trkpt lat="43.19583" lon="5.99973">
        <ele>198.65</ele>
        <time>2022-09-17T07:38:21Z</time>
      </trkpt>
      <trkpt lat="43.19581" lon="5.99979">
        <ele>198.17</ele>
        <time>2022-09-17T07:38:22Z</time>
      </trkpt>
      <trkpt lat="43.1958" lon="5.99984">
        <ele>198.17</ele>
        <time>2022-09-17T07:38:23Z</time>
      </trkpt>
      <trkpt lat="43.19579" lon="5.9999">
        <ele>198.65</ele>
        <time>2022-09-17T07:38:24Z</time>
      </trkpt>
      <trkpt lat="43.19578" lon="5.99995">
        <ele>198.65</ele>
        <time>2022-09-17T07:38:25Z</time>
      </trkpt>
      <trkpt lat="43.19576" lon="6">
        <ele>198.65</ele>
        <time>2022-09-17T07:38:26Z</time>
      </trkpt>
      <trkpt lat="43.19569" lon="6.00021">
        <ele>198.65</ele>
        <time>2022-09-17T07:38:30Z</time>
      </trkpt>
      <trkpt lat="43.19564" lon="6.00031">
        <ele>198.17</ele>
        <time>2022-09-17T07:38:32Z</time>
      </trkpt>
      <trkpt lat="43.19562" lon="6.00036">
        <ele>198.65</ele>
        <time>2022-09-17T07:38:33Z</time>
      </trkpt>
      <trkpt lat="43.19555" lon="6.00042">
        <ele>198.65</ele>
        <time>2022-09-17T07:38:35Z</time>
      </trkpt>
      <trkpt lat="43.19552" lon="6.00045">
        <ele>199.13</ele>
        <time>2022-09-17T07:38:36Z</time>
      </trkpt>
      <trkpt lat="43.19548" lon="6.00047">
        <ele>199.13</ele>
        <time>2022-09-17T07:38:37Z</time>
      </trkpt>
      <trkpt lat="43.19543" lon="6.00049">
        <ele>199.61</ele>
        <time>2022-09-17T07:38:38Z</time>
      </trkpt>
      <trkpt lat="43.19539" lon="6.00049">
        <ele>199.61</ele>
        <time>2022-09-17T07:38:39Z</time>
      </trkpt>
      <trkpt lat="43.19535" lon="6.00049">
        <ele>199.61</ele>
        <time>2022-09-17T07:38:40Z</time>
      </trkpt>
      <trkpt lat="43.19531" lon="6.00049">
        <ele>199.61</ele>
        <time>2022-09-17T07:38:41Z</time>
      </trkpt>
      <trkpt lat="43.19526" lon="6.00049">
        <ele>199.61</ele>
        <time>2022-09-17T07:38:42Z</time>
      </trkpt>
      <trkpt lat="43.19523" lon="6.00048">
        <ele>199.13</ele>
        <time>2022-09-17T07:38:43Z</time>
      </trkpt>
      <trkpt lat="43.19494" lon="6.0002">
        <ele>199.13</ele>
        <time>2022-09-17T07:38:52Z</time>
      </trkpt>
      <trkpt lat="43.1947" lon="5.99987">
        <ele>201.05</ele>
        <time>2022-09-17T07:39:03Z</time>
      </trkpt>
      <trkpt lat="43.19465" lon="5.99982">
        <ele>202.49</ele>
        <time>2022-09-17T07:39:06Z</time>
      </trkpt>
      <trkpt lat="43.19453" lon="5.99975">
        <ele>205.38</ele>
        <time>2022-09-17T07:39:12Z</time>
      </trkpt>
      <trkpt lat="43.19434" lon="5.99958">
        <ele>207.78</ele>
        <time>2022-09-17T07:39:21Z</time>
      </trkpt>
      <trkpt lat="43.194" lon="5.99948">
        <ele>209.7</ele>
        <time>2022-09-17T07:39:33Z</time>
      </trkpt>
      <trkpt lat="43.19374" lon="5.99958">
        <ele>210.19</ele>
        <time>2022-09-17T07:39:44Z</time>
      </trkpt>
      <trkpt lat="43.19343" lon="5.99982">
        <ele>209.7</ele>
        <time>2022-09-17T07:39:56Z</time>
      </trkpt>
      <trkpt lat="43.19305" lon="6">
        <ele>207.3</ele>
        <time>2022-09-17T07:40:07Z</time>
      </trkpt>
      <trkpt lat="43.19293" lon="6.00005">
        <ele>206.82</ele>
        <time>2022-09-17T07:40:10Z</time>
      </trkpt>
      <trkpt lat="43.19288" lon="6.00006">
        <ele>206.34</ele>
        <time>2022-09-17T07:40:11Z</time>
      </trkpt>
      <trkpt lat="43.19283" lon="6.00007">
        <ele>206.34</ele>
        <time>2022-09-17T07:40:12Z</time>
      </trkpt>
      <trkpt lat="43.1924" lon="6.00027">
        <ele>202.98</ele>
        <time>2022-09-17T07:40:21Z</time>
      </trkpt>
      <trkpt lat="43.19235" lon="6.00031">
        <ele>202.98</ele>
        <time>2022-09-17T07:40:22Z</time>
      </trkpt>
      <trkpt lat="43.1923" lon="6.00035">
        <ele>202.49</ele>
        <time>2022-09-17T07:40:23Z</time>
      </trkpt>
      <trkpt lat="43.19222" lon="6.00043">
        <ele>201.05</ele>
        <time>2022-09-17T07:40:25Z</time>
      </trkpt>
      <trkpt lat="43.19218" lon="6.00047">
        <ele>200.57</ele>
        <time>2022-09-17T07:40:26Z</time>
      </trkpt>
      <trkpt lat="43.19194" lon="6.00063">
        <ele>199.61</ele>
        <time>2022-09-17T07:40:32Z</time>
      </trkpt>
      <trkpt lat="43.1919" lon="6.00065">
        <ele>198.65</ele>
        <time>2022-09-17T07:40:33Z</time>
      </trkpt>
      <trkpt lat="43.19187" lon="6.00068">
        <ele>198.17</ele>
        <time>2022-09-17T07:40:34Z</time>
      </trkpt>
      <trkpt lat="43.19183" lon="6.0007">
        <ele>198.17</ele>
        <time>2022-09-17T07:40:35Z</time>
      </trkpt>
      <trkpt lat="43.1918" lon="6.00073">
        <ele>197.69</ele>
        <time>2022-09-17T07:40:36Z</time>
      </trkpt>
      <trkpt lat="43.19131" lon="6.00119">
        <ele>195.77</ele>
        <time>2022-09-17T07:40:50Z</time>
      </trkpt>
      <trkpt lat="43.19112" lon="6.00143">
        <ele>195.28</ele>
        <time>2022-09-17T07:40:56Z</time>
      </trkpt>
      <trkpt lat="43.19106" lon="6.00152">
        <ele>195.77</ele>
        <time>2022-09-17T07:40:58Z</time>
      </trkpt>
      <trkpt lat="43.19104" lon="6.00157">
        <ele>194.8</ele>
        <time>2022-09-17T07:40:59Z</time>
      </trkpt>
      <trkpt lat="43.19097" lon="6.00174">
        <ele>196.73</ele>
        <time>2022-09-17T07:41:02Z</time>
      </trkpt>
      <trkpt lat="43.19066" lon="6.00249">
        <ele>205.86</ele>
        <time>2022-09-17T07:41:16Z</time>
      </trkpt>
      <trkpt lat="43.19059" lon="6.00269">
        <ele>206.82</ele>
        <time>2022-09-17T07:41:20Z</time>
      </trkpt>
      <trkpt lat="43.19056" lon="6.00274">
        <ele>206.82</ele>
        <time>2022-09-17T07:41:21Z</time>
      </trkpt>
      <trkpt lat="43.19054" lon="6.00279">
        <ele>207.3</ele>
        <time>2022-09-17T07:41:22Z</time>
      </trkpt>
      <trkpt lat="43.19046" lon="6.00294">
        <ele>208.74</ele>
        <time>2022-09-17T07:41:25Z</time>
      </trkpt>
      <trkpt lat="43.19044" lon="6.00299">
        <ele>208.26</ele>
        <time>2022-09-17T07:41:26Z</time>
      </trkpt>
      <trkpt lat="43.19042" lon="6.00305">
        <ele>208.74</ele>
        <time>2022-09-17T07:41:27Z</time>
      </trkpt>
      <trkpt lat="43.1904" lon="6.00311">
        <ele>208.74</ele>
        <time>2022-09-17T07:41:28Z</time>
      </trkpt>
      <trkpt lat="43.19039" lon="6.00317">
        <ele>209.22</ele>
        <time>2022-09-17T07:41:29Z</time>
      </trkpt>
      <trkpt lat="43.1902" lon="6.00382">
        <ele>213.07</ele>
        <time>2022-09-17T07:41:40Z</time>
      </trkpt>
      <trkpt lat="43.19019" lon="6.00387">
        <ele>213.07</ele>
        <time>2022-09-17T07:41:41Z</time>
      </trkpt>
      <trkpt lat="43.19018" lon="6.00455">
        <ele>217.4</ele>
        <time>2022-09-17T07:41:54Z</time>
      </trkpt>
      <trkpt lat="43.19008" lon="6.00507">
        <ele>218.84</ele>
        <time>2022-09-17T07:42:05Z</time>
      </trkpt>
      <trkpt lat="43.18983" lon="6.00562">
        <ele>219.8</ele>
        <time>2022-09-17T07:42:18Z</time>
      </trkpt>
      <trkpt lat="43.18937" lon="6.00594">
        <ele>220.76</ele>
        <time>2022-09-17T07:42:32Z</time>
      </trkpt>
      <trkpt lat="43.18906" lon="6.00597">
        <ele>220.76</ele>
        <time>2022-09-17T07:42:41Z</time>
      </trkpt>
      <trkpt lat="43.18887" lon="6.00645">
        <ele>220.28</ele>
        <time>2022-09-17T07:42:52Z</time>
      </trkpt>
      <trkpt lat="43.18853" lon="6.00658">
        <ele>222.2</ele>
        <time>2022-09-17T07:43:03Z</time>
      </trkpt>
      <trkpt lat="43.18818" lon="6.00663">
        <ele>222.2</ele>
        <time>2022-09-17T07:43:16Z</time>
      </trkpt>
      <trkpt lat="43.18777" lon="6.00692">
        <ele>226.05</ele>
        <time>2022-09-17T07:43:32Z</time>
      </trkpt>
      <trkpt lat="43.18747" lon="6.0071">
        <ele>227.97</ele>
        <time>2022-09-17T07:43:45Z</time>
      </trkpt>
      <trkpt lat="43.18712" lon="6.0072">
        <ele>228.93</ele>
        <time>2022-09-17T07:43:57Z</time>
      </trkpt>
      <trkpt lat="43.18668" lon="6.00728">
        <ele>231.33</ele>
        <time>2022-09-17T07:44:12Z</time>
      </trkpt>
      <trkpt lat="43.1863" lon="6.00739">
        <ele>233.26</ele>
        <time>2022-09-17T07:44:27Z</time>
      </trkpt>
      <trkpt lat="43.1863" lon="6.00742">
        <ele>233.74</ele>
        <time>2022-09-17T07:44:28Z</time>
      </trkpt>
      <trkpt lat="43.1863" lon="6.00746">
        <ele>233.74</ele>
        <time>2022-09-17T07:44:29Z</time>
      </trkpt>
      <trkpt lat="43.18631" lon="6.0075">
        <ele>234.22</ele>
        <time>2022-09-17T07:44:30Z</time>
      </trkpt>
      <trkpt lat="43.18632" lon="6.00754">
        <ele>234.7</ele>
        <time>2022-09-17T07:44:31Z</time>
      </trkpt>
      <trkpt lat="43.18633" lon="6.00758">
        <ele>235.18</ele>
        <time>2022-09-17T07:44:32Z</time>
      </trkpt>
      <trkpt lat="43.18668" lon="6.00801">
        <ele>237.58</ele>
        <time>2022-09-17T07:44:45Z</time>
      </trkpt>
      <trkpt lat="43.18711" lon="6.00843">
        <ele>240.95</ele>
        <time>2022-09-17T07:44:59Z</time>
      </trkpt>
      <trkpt lat="43.18737" lon="6.00862">
        <ele>242.87</ele>
        <time>2022-09-17T07:45:06Z</time>
      </trkpt>
      <trkpt lat="43.1874" lon="6.00865">
        <ele>242.87</ele>
        <time>2022-09-17T07:45:07Z</time>
      </trkpt>
      <trkpt lat="43.18744" lon="6.00868">
        <ele>243.83</ele>
        <time>2022-09-17T07:45:08Z</time>
      </trkpt>
      <trkpt lat="43.18762" lon="6.00897">
        <ele>245.27</ele>
        <time>2022-09-17T07:45:15Z</time>
      </trkpt>
      <trkpt lat="43.18763" lon="6.00902">
        <ele>245.27</ele>
        <time>2022-09-17T07:45:16Z</time>
      </trkpt>
      <trkpt lat="43.18763" lon="6.00908">
        <ele>245.75</ele>
        <time>2022-09-17T07:45:17Z</time>
      </trkpt>
      <trkpt lat="43.18763" lon="6.00914">
        <ele>245.27</ele>
        <time>2022-09-17T07:45:18Z</time>
      </trkpt>
      <trkpt lat="43.18763" lon="6.0092">
        <ele>245.27</ele>
        <time>2022-09-17T07:45:19Z</time>
      </trkpt>
      <trkpt lat="43.18762" lon="6.00926">
        <ele>245.27</ele>
        <time>2022-09-17T07:45:20Z</time>
      </trkpt>
      <trkpt lat="43.18761" lon="6.00932">
        <ele>245.27</ele>
        <time>2022-09-17T07:45:21Z</time>
      </trkpt>
      <trkpt lat="43.18736" lon="6.01014">
        <ele>245.75</ele>
        <time>2022-09-17T07:45:36Z</time>
      </trkpt>
      <trkpt lat="43.18714" lon="6.0106">
        <ele>246.23</ele>
        <time>2022-09-17T07:45:45Z</time>
      </trkpt>
      <trkpt lat="43.18711" lon="6.01065">
        <ele>246.23</ele>
        <time>2022-09-17T07:45:46Z</time>
      </trkpt>
      <trkpt lat="43.18709" lon="6.0107">
        <ele>247.2</ele>
        <time>2022-09-17T07:45:47Z</time>
      </trkpt>
      <trkpt lat="43.18707" lon="6.01075">
        <ele>247.2</ele>
        <time>2022-09-17T07:45:48Z</time>
      </trkpt>
      <trkpt lat="43.18704" lon="6.0108">
        <ele>247.68</ele>
        <time>2022-09-17T07:45:49Z</time>
      </trkpt>
      <trkpt lat="43.18699" lon="6.01091">
        <ele>247.68</ele>
        <time>2022-09-17T07:45:51Z</time>
      </trkpt>
      <trkpt lat="43.18684" lon="6.01114">
        <ele>247.2</ele>
        <time>2022-09-17T07:45:56Z</time>
      </trkpt>
      <trkpt lat="43.1868" lon="6.01118">
        <ele>247.2</ele>
        <time>2022-09-17T07:45:57Z</time>
      </trkpt>
      <trkpt lat="43.18676" lon="6.01121">
        <ele>248.16</ele>
        <time>2022-09-17T07:45:58Z</time>
      </trkpt>
      <trkpt lat="43.18658" lon="6.01139">
        <ele>249.12</ele>
        <time>2022-09-17T07:46:03Z</time>
      </trkpt>
      <trkpt lat="43.18655" lon="6.01144">
        <ele>249.12</ele>
        <time>2022-09-17T07:46:04Z</time>
      </trkpt>
      <trkpt lat="43.18653" lon="6.01149">
        <ele>249.6</ele>
        <time>2022-09-17T07:46:05Z</time>
      </trkpt>
      <trkpt lat="43.18651" lon="6.01154">
        <ele>249.6</ele>
        <time>2022-09-17T07:46:06Z</time>
      </trkpt>
      <trkpt lat="43.18648" lon="6.01159">
        <ele>250.08</ele>
        <time>2022-09-17T07:46:07Z</time>
      </trkpt>
      <trkpt lat="43.18647" lon="6.01165">
        <ele>250.08</ele>
        <time>2022-09-17T07:46:08Z</time>
      </trkpt>
      <trkpt lat="43.1864" lon="6.0118">
        <ele>250.56</ele>
        <time>2022-09-17T07:46:11Z</time>
      </trkpt>
      <trkpt lat="43.18638" lon="6.01186">
        <ele>250.56</ele>
        <time>2022-09-17T07:46:12Z</time>
      </trkpt>
      <trkpt lat="43.18635" lon="6.01191">
        <ele>250.56</ele>
        <time>2022-09-17T07:46:13Z</time>
      </trkpt>
      <trkpt lat="43.18633" lon="6.01196">
        <ele>250.56</ele>
        <time>2022-09-17T07:46:14Z</time>
      </trkpt>
      <trkpt lat="43.1863" lon="6.01201">
        <ele>250.56</ele>
        <time>2022-09-17T07:46:15Z</time>
      </trkpt>
      <trkpt lat="43.18627" lon="6.01205">
        <ele>250.08</ele>
        <time>2022-09-17T07:46:16Z</time>
      </trkpt>
      <trkpt lat="43.18624" lon="6.01209">
        <ele>250.08</ele>
        <time>2022-09-17T07:46:17Z</time>
      </trkpt>
      <trkpt lat="43.18615" lon="6.01222">
        <ele>250.56</ele>
        <time>2022-09-17T07:46:21Z</time>
      </trkpt>
      <trkpt lat="43.18612" lon="6.01225">
        <ele>250.56</ele>
        <time>2022-09-17T07:46:22Z</time>
      </trkpt>
      <trkpt lat="43.18599" lon="6.01235">
        <ele>252</ele>
        <time>2022-09-17T07:46:26Z</time>
      </trkpt>
      <trkpt lat="43.18563" lon="6.01275">
        <ele>252.96</ele>
        <time>2022-09-17T07:46:38Z</time>
      </trkpt>
      <trkpt lat="43.18572" lon="6.01322">
        <ele>255.85</ele>
        <time>2022-09-17T07:46:48Z</time>
      </trkpt>
      <trkpt lat="43.18574" lon="6.01333">
        <ele>255.85</ele>
        <time>2022-09-17T07:46:50Z</time>
      </trkpt>
      <trkpt lat="43.18596" lon="6.01352">
        <ele>257.29</ele>
        <time>2022-09-17T07:46:58Z</time>
      </trkpt>
      <trkpt lat="43.18644" lon="6.01343">
        <ele>257.29</ele>
        <time>2022-09-17T07:47:09Z</time>
      </trkpt>
      <trkpt lat="43.18685" lon="6.01361">
        <ele>257.77</ele>
        <time>2022-09-17T07:47:21Z</time>
      </trkpt>
      <trkpt lat="43.18725" lon="6.01349">
        <ele>260.65</ele>
        <time>2022-09-17T07:47:32Z</time>
      </trkpt>
      <trkpt lat="43.18776" lon="6.01333">
        <ele>264.02</ele>
        <time>2022-09-17T07:47:46Z</time>
      </trkpt>
      <trkpt lat="43.18819" lon="6.01317">
        <ele>264.98</ele>
        <time>2022-09-17T07:47:59Z</time>
      </trkpt>
      <trkpt lat="43.1885" lon="6.01314">
        <ele>263.54</ele>
        <time>2022-09-17T07:48:08Z</time>
      </trkpt>
      <trkpt lat="43.18852" lon="6.01318">
        <ele>263.54</ele>
        <time>2022-09-17T07:48:09Z</time>
      </trkpt>
      <trkpt lat="43.18854" lon="6.01323">
        <ele>264.02</ele>
        <time>2022-09-17T07:48:10Z</time>
      </trkpt>
      <trkpt lat="43.18855" lon="6.01329">
        <ele>264.02</ele>
        <time>2022-09-17T07:48:11Z</time>
      </trkpt>
      <trkpt lat="43.18855" lon="6.01334">
        <ele>263.54</ele>
        <time>2022-09-17T07:48:12Z</time>
      </trkpt>
      <trkpt lat="43.18854" lon="6.01339">
        <ele>263.54</ele>
        <time>2022-09-17T07:48:13Z</time>
      </trkpt>
      <trkpt lat="43.18853" lon="6.01344">
        <ele>263.54</ele>
        <time>2022-09-17T07:48:14Z</time>
      </trkpt>
      <trkpt lat="43.1885" lon="6.01349">
        <ele>263.54</ele>
        <time>2022-09-17T07:48:15Z</time>
      </trkpt>
      <trkpt lat="43.18848" lon="6.01354">
        <ele>264.02</ele>
        <time>2022-09-17T07:48:16Z</time>
      </trkpt>
      <trkpt lat="43.18805" lon="6.01417">
        <ele>265.46</ele>
        <time>2022-09-17T07:48:33Z</time>
      </trkpt>
      <trkpt lat="43.18765" lon="6.01473">
        <ele>267.86</ele>
        <time>2022-09-17T07:48:48Z</time>
      </trkpt>
      <trkpt lat="43.18761" lon="6.01476">
        <ele>267.38</ele>
        <time>2022-09-17T07:48:49Z</time>
      </trkpt>
      <trkpt lat="43.18758" lon="6.01479">
        <ele>267.38</ele>
        <time>2022-09-17T07:48:50Z</time>
      </trkpt>
      <trkpt lat="43.18754" lon="6.01482">
        <ele>267.38</ele>
        <time>2022-09-17T07:48:51Z</time>
      </trkpt>
      <trkpt lat="43.18747" lon="6.01488">
        <ele>267.38</ele>
        <time>2022-09-17T07:48:53Z</time>
      </trkpt>
      <trkpt lat="43.18741" lon="6.01494">
        <ele>267.38</ele>
        <time>2022-09-17T07:48:55Z</time>
      </trkpt>
      <trkpt lat="43.18738" lon="6.01498">
        <ele>267.86</ele>
        <time>2022-09-17T07:48:56Z</time>
      </trkpt>
      <trkpt lat="43.18715" lon="6.01554">
        <ele>272.67</ele>
        <time>2022-09-17T07:49:09Z</time>
      </trkpt>
      <trkpt lat="43.18711" lon="6.0157">
        <ele>273.63</ele>
        <time>2022-09-17T07:49:12Z</time>
      </trkpt>
      <trkpt lat="43.1871" lon="6.01576">
        <ele>274.11</ele>
        <time>2022-09-17T07:49:13Z</time>
      </trkpt>
      <trkpt lat="43.18709" lon="6.01582">
        <ele>274.59</ele>
        <time>2022-09-17T07:49:14Z</time>
      </trkpt>
      <trkpt lat="43.18709" lon="6.01609">
        <ele>276.04</ele>
        <time>2022-09-17T07:49:19Z</time>
      </trkpt>
      <trkpt lat="43.18709" lon="6.01615">
        <ele>276.04</ele>
        <time>2022-09-17T07:49:20Z</time>
      </trkpt>
      <trkpt lat="43.1871" lon="6.01622">
        <ele>276.52</ele>
        <time>2022-09-17T07:49:21Z</time>
      </trkpt>
      <trkpt lat="43.1871" lon="6.0164">
        <ele>277.48</ele>
        <time>2022-09-17T07:49:24Z</time>
      </trkpt>
      <trkpt lat="43.18709" lon="6.01646">
        <ele>277.48</ele>
        <time>2022-09-17T07:49:25Z</time>
      </trkpt>
      <trkpt lat="43.18708" lon="6.01658">
        <ele>277.96</ele>
        <time>2022-09-17T07:49:27Z</time>
      </trkpt>
      <trkpt lat="43.18706" lon="6.0167">
        <ele>278.44</ele>
        <time>2022-09-17T07:49:29Z</time>
      </trkpt>
      <trkpt lat="43.18706" lon="6.01676">
        <ele>278.44</ele>
        <time>2022-09-17T07:49:30Z</time>
      </trkpt>
      <trkpt lat="43.18707" lon="6.01682">
        <ele>278.44</ele>
        <time>2022-09-17T07:49:31Z</time>
      </trkpt>
      <trkpt lat="43.18709" lon="6.01693">
        <ele>278.92</ele>
        <time>2022-09-17T07:49:33Z</time>
      </trkpt>
      <trkpt lat="43.18719" lon="6.01729">
        <ele>279.4</ele>
        <time>2022-09-17T07:49:40Z</time>
      </trkpt>
      <trkpt lat="43.18719" lon="6.01734">
        <ele>278.92</ele>
        <time>2022-09-17T07:49:41Z</time>
      </trkpt>
      <trkpt lat="43.18719" lon="6.01751">
        <ele>278.44</ele>
        <time>2022-09-17T07:49:44Z</time>
      </trkpt>
      <trkpt lat="43.18718" lon="6.01756">
        <ele>278.44</ele>
        <time>2022-09-17T07:49:45Z</time>
      </trkpt>
      <trkpt lat="43.18717" lon="6.01762">
        <ele>278.44</ele>
        <time>2022-09-17T07:49:46Z</time>
      </trkpt>
      <trkpt lat="43.18716" lon="6.01767">
        <ele>278.44</ele>
        <time>2022-09-17T07:49:47Z</time>
      </trkpt>
      <trkpt lat="43.18715" lon="6.01772">
        <ele>278.44</ele>
        <time>2022-09-17T07:49:48Z</time>
      </trkpt>
      <trkpt lat="43.18707" lon="6.01854">
        <ele>276.04</ele>
        <time>2022-09-17T07:50:04Z</time>
      </trkpt>
      <trkpt lat="43.18715" lon="6.01893">
        <ele>276.04</ele>
        <time>2022-09-17T07:50:12Z</time>
      </trkpt>
      <trkpt lat="43.18718" lon="6.01894">
        <ele>276.04</ele>
        <time>2022-09-17T07:50:13Z</time>
      </trkpt>
      <trkpt lat="43.18722" lon="6.01893">
        <ele>276.04</ele>
        <time>2022-09-17T07:50:14Z</time>
      </trkpt>
      <trkpt lat="43.18726" lon="6.0189">
        <ele>276.52</ele>
        <time>2022-09-17T07:50:15Z</time>
      </trkpt>
      <trkpt lat="43.18731" lon="6.01886">
        <ele>276.52</ele>
        <time>2022-09-17T07:50:16Z</time>
      </trkpt>
      <trkpt lat="43.18735" lon="6.01881">
        <ele>277</ele>
        <time>2022-09-17T07:50:17Z</time>
      </trkpt>
      <trkpt lat="43.18739" lon="6.01877">
        <ele>277</ele>
        <time>2022-09-17T07:50:18Z</time>
      </trkpt>
      <trkpt lat="43.18752" lon="6.01868">
        <ele>277</ele>
        <time>2022-09-17T07:50:21Z</time>
      </trkpt>
      <trkpt lat="43.18757" lon="6.01865">
        <ele>277</ele>
        <time>2022-09-17T07:50:22Z</time>
      </trkpt>
      <trkpt lat="43.18776" lon="6.01856">
        <ele>276.04</ele>
        <time>2022-09-17T07:50:26Z</time>
      </trkpt>
      <trkpt lat="43.18782" lon="6.01855">
        <ele>276.04</ele>
        <time>2022-09-17T07:50:27Z</time>
      </trkpt>
      <trkpt lat="43.18787" lon="6.01855">
        <ele>276.04</ele>
        <time>2022-09-17T07:50:28Z</time>
      </trkpt>
      <trkpt lat="43.18811" lon="6.01854">
        <ele>277</ele>
        <time>2022-09-17T07:50:33Z</time>
      </trkpt>
      <trkpt lat="43.18815" lon="6.01852">
        <ele>277.48</ele>
        <time>2022-09-17T07:50:34Z</time>
      </trkpt>
      <trkpt lat="43.1882" lon="6.0185">
        <ele>277.48</ele>
        <time>2022-09-17T07:50:35Z</time>
      </trkpt>
      <trkpt lat="43.18824" lon="6.01848">
        <ele>277.48</ele>
        <time>2022-09-17T07:50:36Z</time>
      </trkpt>
      <trkpt lat="43.18828" lon="6.01846">
        <ele>277.48</ele>
        <time>2022-09-17T07:50:37Z</time>
      </trkpt>
      <trkpt lat="43.18832" lon="6.01845">
        <ele>277.48</ele>
        <time>2022-09-17T07:50:38Z</time>
      </trkpt>
      <trkpt lat="43.1884" lon="6.01846">
        <ele>277.48</ele>
        <time>2022-09-17T07:50:40Z</time>
      </trkpt>
      <trkpt lat="43.18843" lon="6.01847">
        <ele>277.96</ele>
        <time>2022-09-17T07:50:41Z</time>
      </trkpt>
      <trkpt lat="43.18855" lon="6.01852">
        <ele>278.44</ele>
        <time>2022-09-17T07:50:44Z</time>
      </trkpt>
      <trkpt lat="43.18884" lon="6.01856">
        <ele>282.77</ele>
        <time>2022-09-17T07:50:53Z</time>
      </trkpt>
      <trkpt lat="43.189" lon="6.01871">
        <ele>283.25</ele>
        <time>2022-09-17T07:50:58Z</time>
      </trkpt>
      <trkpt lat="43.18903" lon="6.01876">
        <ele>283.25</ele>
        <time>2022-09-17T07:50:59Z</time>
      </trkpt>
      <trkpt lat="43.18905" lon="6.01881">
        <ele>283.25</ele>
        <time>2022-09-17T07:51:00Z</time>
      </trkpt>
      <trkpt lat="43.18907" lon="6.01885">
        <ele>283.25</ele>
        <time>2022-09-17T07:51:01Z</time>
      </trkpt>
      <trkpt lat="43.18908" lon="6.0189">
        <ele>283.25</ele>
        <time>2022-09-17T07:51:02Z</time>
      </trkpt>
      <trkpt lat="43.1891" lon="6.01895">
        <ele>283.25</ele>
        <time>2022-09-17T07:51:03Z</time>
      </trkpt>
      <trkpt lat="43.18923" lon="6.01915">
        <ele>283.73</ele>
        <time>2022-09-17T07:51:08Z</time>
      </trkpt>
      <trkpt lat="43.18945" lon="6.01927">
        <ele>286.13</ele>
        <time>2022-09-17T07:51:14Z</time>
      </trkpt>
      <trkpt lat="43.1895" lon="6.01927">
        <ele>286.61</ele>
        <time>2022-09-17T07:51:15Z</time>
      </trkpt>
      <trkpt lat="43.18955" lon="6.01927">
        <ele>286.61</ele>
        <time>2022-09-17T07:51:16Z</time>
      </trkpt>
      <trkpt lat="43.1896" lon="6.01925">
        <ele>286.61</ele>
        <time>2022-09-17T07:51:17Z</time>
      </trkpt>
      <trkpt lat="43.18965" lon="6.01923">
        <ele>287.09</ele>
        <time>2022-09-17T07:51:18Z</time>
      </trkpt>
      <trkpt lat="43.1897" lon="6.01921">
        <ele>286.61</ele>
        <time>2022-09-17T07:51:19Z</time>
      </trkpt>
      <trkpt lat="43.1903" lon="6.01879">
        <ele>286.13</ele>
        <time>2022-09-17T07:51:33Z</time>
      </trkpt>
      <trkpt lat="43.19046" lon="6.01868">
        <ele>286.61</ele>
        <time>2022-09-17T07:51:37Z</time>
      </trkpt>
      <trkpt lat="43.1905" lon="6.01865">
        <ele>287.09</ele>
        <time>2022-09-17T07:51:38Z</time>
      </trkpt>
      <trkpt lat="43.19058" lon="6.01859">
        <ele>287.09</ele>
        <time>2022-09-17T07:51:40Z</time>
      </trkpt>
      <trkpt lat="43.19062" lon="6.01857">
        <ele>287.57</ele>
        <time>2022-09-17T07:51:41Z</time>
      </trkpt>
      <trkpt lat="43.19067" lon="6.01855">
        <ele>287.09</ele>
        <time>2022-09-17T07:51:42Z</time>
      </trkpt>
      <trkpt lat="43.19075" lon="6.01852">
        <ele>287.57</ele>
        <time>2022-09-17T07:51:44Z</time>
      </trkpt>
      <trkpt lat="43.1908" lon="6.01852">
        <ele>287.57</ele>
        <time>2022-09-17T07:51:45Z</time>
      </trkpt>
      <trkpt lat="43.19084" lon="6.01853">
        <ele>288.53</ele>
        <time>2022-09-17T07:51:46Z</time>
      </trkpt>
      <trkpt lat="43.19088" lon="6.01855">
        <ele>288.53</ele>
        <time>2022-09-17T07:51:47Z</time>
      </trkpt>
      <trkpt lat="43.19092" lon="6.01857">
        <ele>289.01</ele>
        <time>2022-09-17T07:51:48Z</time>
      </trkpt>
      <trkpt lat="43.19096" lon="6.0186">
        <ele>289.01</ele>
        <time>2022-09-17T07:51:49Z</time>
      </trkpt>
      <trkpt lat="43.19143" lon="6.01889">
        <ele>289.97</ele>
        <time>2022-09-17T07:52:00Z</time>
      </trkpt>
      <trkpt lat="43.19146" lon="6.01892">
        <ele>290.46</ele>
        <time>2022-09-17T07:52:01Z</time>
      </trkpt>
      <trkpt lat="43.1915" lon="6.01897">
        <ele>290.46</ele>
        <time>2022-09-17T07:52:02Z</time>
      </trkpt>
      <trkpt lat="43.19153" lon="6.01902">
        <ele>290.46</ele>
        <time>2022-09-17T07:52:03Z</time>
      </trkpt>
      <trkpt lat="43.19155" lon="6.01908">
        <ele>290.94</ele>
        <time>2022-09-17T07:52:04Z</time>
      </trkpt>
      <trkpt lat="43.19164" lon="6.01924">
        <ele>289.97</ele>
        <time>2022-09-17T07:52:07Z</time>
      </trkpt>
      <trkpt lat="43.192" lon="6.01964">
        <ele>287.57</ele>
        <time>2022-09-17T07:52:17Z</time>
      </trkpt>
      <trkpt lat="43.19203" lon="6.0197">
        <ele>287.09</ele>
        <time>2022-09-17T07:52:18Z</time>
      </trkpt>
      <trkpt lat="43.19205" lon="6.01977">
        <ele>286.61</ele>
        <time>2022-09-17T07:52:19Z</time>
      </trkpt>
      <trkpt lat="43.19207" lon="6.01986">
        <ele>286.13</ele>
        <time>2022-09-17T07:52:20Z</time>
      </trkpt>
      <trkpt lat="43.19207" lon="6.01995">
        <ele>285.65</ele>
        <time>2022-09-17T07:52:21Z</time>
      </trkpt>
      <trkpt lat="43.19207" lon="6.02004">
        <ele>285.17</ele>
        <time>2022-09-17T07:52:22Z</time>
      </trkpt>
      <trkpt lat="43.19207" lon="6.02041">
        <ele>284.21</ele>
        <time>2022-09-17T07:52:26Z</time>
      </trkpt>
      <trkpt lat="43.19209" lon="6.02049">
        <ele>283.73</ele>
        <time>2022-09-17T07:52:27Z</time>
      </trkpt>
      <trkpt lat="43.19212" lon="6.02057">
        <ele>283.25</ele>
        <time>2022-09-17T07:52:28Z</time>
      </trkpt>
      <trkpt lat="43.19216" lon="6.02062">
        <ele>282.77</ele>
        <time>2022-09-17T07:52:29Z</time>
      </trkpt>
      <trkpt lat="43.19221" lon="6.02067">
        <ele>282.77</ele>
        <time>2022-09-17T07:52:30Z</time>
      </trkpt>
      <trkpt lat="43.19227" lon="6.02071">
        <ele>282.28</ele>
        <time>2022-09-17T07:52:31Z</time>
      </trkpt>
      <trkpt lat="43.19232" lon="6.02074">
        <ele>282.28</ele>
        <time>2022-09-17T07:52:32Z</time>
      </trkpt>
      <trkpt lat="43.19237" lon="6.02077">
        <ele>282.28</ele>
        <time>2022-09-17T07:52:33Z</time>
      </trkpt>
      <trkpt lat="43.19244" lon="6.02079">
        <ele>281.8</ele>
        <time>2022-09-17T07:52:34Z</time>
      </trkpt>
      <trkpt lat="43.19304" lon="6.02088">
        <ele>280.84</ele>
        <time>2022-09-17T07:52:42Z</time>
      </trkpt>
      <trkpt lat="43.19329" lon="6.02098">
        <ele>278.44</ele>
        <time>2022-09-17T07:52:45Z</time>
      </trkpt>
      <trkpt lat="43.19362" lon="6.02115">
        <ele>276.04</ele>
        <time>2022-09-17T07:52:49Z</time>
      </trkpt>
      <trkpt lat="43.19426" lon="6.02134">
        <ele>272.19</ele>
        <time>2022-09-17T07:52:57Z</time>
      </trkpt>
      <trkpt lat="43.19436" lon="6.0214">
        <ele>270.75</ele>
        <time>2022-09-17T07:52:59Z</time>
      </trkpt>
      <trkpt lat="43.19442" lon="6.02139">
        <ele>269.79</ele>
        <time>2022-09-17T07:53:00Z</time>
      </trkpt>
      <trkpt lat="43.19449" lon="6.02137">
        <ele>269.79</ele>
        <time>2022-09-17T07:53:01Z</time>
      </trkpt>
      <trkpt lat="43.19455" lon="6.02133">
        <ele>269.79</ele>
        <time>2022-09-17T07:53:02Z</time>
      </trkpt>
      <trkpt lat="43.19461" lon="6.02128">
        <ele>269.79</ele>
        <time>2022-09-17T07:53:03Z</time>
      </trkpt>
      <trkpt lat="43.19466" lon="6.02122">
        <ele>269.31</ele>
        <time>2022-09-17T07:53:04Z</time>
      </trkpt>
      <trkpt lat="43.19473" lon="6.02117">
        <ele>268.83</ele>
        <time>2022-09-17T07:53:05Z</time>
      </trkpt>
      <trkpt lat="43.19498" lon="6.02097">
        <ele>266.9</ele>
        <time>2022-09-17T07:53:09Z</time>
      </trkpt>
      <trkpt lat="43.19506" lon="6.02095">
        <ele>266.42</ele>
        <time>2022-09-17T07:53:10Z</time>
      </trkpt>
      <trkpt lat="43.19513" lon="6.02095">
        <ele>266.42</ele>
        <time>2022-09-17T07:53:11Z</time>
      </trkpt>
      <trkpt lat="43.1952" lon="6.02096">
        <ele>265.94</ele>
        <time>2022-09-17T07:53:12Z</time>
      </trkpt>
      <trkpt lat="43.19527" lon="6.02099">
        <ele>265.46</ele>
        <time>2022-09-17T07:53:13Z</time>
      </trkpt>
      <trkpt lat="43.19534" lon="6.02102">
        <ele>264.98</ele>
        <time>2022-09-17T07:53:14Z</time>
      </trkpt>
      <trkpt lat="43.19547" lon="6.02109">
        <ele>264.5</ele>
        <time>2022-09-17T07:53:16Z</time>
      </trkpt>
      <trkpt lat="43.19553" lon="6.02114">
        <ele>264.02</ele>
        <time>2022-09-17T07:53:17Z</time>
      </trkpt>
      <trkpt lat="43.19559" lon="6.02119">
        <ele>263.54</ele>
        <time>2022-09-17T07:53:18Z</time>
      </trkpt>
      <trkpt lat="43.1957" lon="6.02131">
        <ele>262.58</ele>
        <time>2022-09-17T07:53:20Z</time>
      </trkpt>
      <trkpt lat="43.19576" lon="6.02135">
        <ele>261.62</ele>
        <time>2022-09-17T07:53:21Z</time>
      </trkpt>
      <trkpt lat="43.19583" lon="6.02138">
        <ele>261.62</ele>
        <time>2022-09-17T07:53:22Z</time>
      </trkpt>
      <trkpt lat="43.1959" lon="6.02138">
        <ele>261.14</ele>
        <time>2022-09-17T07:53:23Z</time>
      </trkpt>
      <trkpt lat="43.19598" lon="6.02137">
        <ele>260.17</ele>
        <time>2022-09-17T07:53:24Z</time>
      </trkpt>
      <trkpt lat="43.19605" lon="6.02134">
        <ele>259.69</ele>
        <time>2022-09-17T07:53:25Z</time>
      </trkpt>
      <trkpt lat="43.19613" lon="6.02131">
        <ele>258.73</ele>
        <time>2022-09-17T07:53:26Z</time>
      </trkpt>
      <trkpt lat="43.1962" lon="6.02127">
        <ele>258.25</ele>
        <time>2022-09-17T07:53:27Z</time>
      </trkpt>
      <trkpt lat="43.19628" lon="6.02123">
        <ele>257.77</ele>
        <time>2022-09-17T07:53:28Z</time>
      </trkpt>
      <trkpt lat="43.19644" lon="6.02116">
        <ele>256.81</ele>
        <time>2022-09-17T07:53:30Z</time>
      </trkpt>
      <trkpt lat="43.19652" lon="6.02114">
        <ele>255.85</ele>
        <time>2022-09-17T07:53:31Z</time>
      </trkpt>
      <trkpt lat="43.19659" lon="6.02111">
        <ele>255.37</ele>
        <time>2022-09-17T07:53:32Z</time>
      </trkpt>
      <trkpt lat="43.1971" lon="6.02097">
        <ele>252.96</ele>
        <time>2022-09-17T07:53:38Z</time>
      </trkpt>
      <trkpt lat="43.19726" lon="6.02096">
        <ele>252</ele>
        <time>2022-09-17T07:53:40Z</time>
      </trkpt>
      <trkpt lat="43.19734" lon="6.02097">
        <ele>251.52</ele>
        <time>2022-09-17T07:53:41Z</time>
      </trkpt>
      <trkpt lat="43.19741" lon="6.02098">
        <ele>251.04</ele>
        <time>2022-09-17T07:53:42Z</time>
      </trkpt>
      <trkpt lat="43.19748" lon="6.02101">
        <ele>251.04</ele>
        <time>2022-09-17T07:53:43Z</time>
      </trkpt>
      <trkpt lat="43.19753" lon="6.02107">
        <ele>251.04</ele>
        <time>2022-09-17T07:53:44Z</time>
      </trkpt>
      <trkpt lat="43.19758" lon="6.02114">
        <ele>250.56</ele>
        <time>2022-09-17T07:53:45Z</time>
      </trkpt>
      <trkpt lat="43.19763" lon="6.02121">
        <ele>250.56</ele>
        <time>2022-09-17T07:53:46Z</time>
      </trkpt>
      <trkpt lat="43.19767" lon="6.02129">
        <ele>250.08</ele>
        <time>2022-09-17T07:53:47Z</time>
      </trkpt>
      <trkpt lat="43.19791" lon="6.02168">
        <ele>249.12</ele>
        <time>2022-09-17T07:53:52Z</time>
      </trkpt>
      <trkpt lat="43.19814" lon="6.02218">
        <ele>247.68</ele>
        <time>2022-09-17T07:53:58Z</time>
      </trkpt>
      <trkpt lat="43.19834" lon="6.02244">
        <ele>245.75</ele>
        <time>2022-09-17T07:54:02Z</time>
      </trkpt>
      <trkpt lat="43.19856" lon="6.02259">
        <ele>243.83</ele>
        <time>2022-09-17T07:54:06Z</time>
      </trkpt>
      <trkpt lat="43.19862" lon="6.02262">
        <ele>242.39</ele>
        <time>2022-09-17T07:54:07Z</time>
      </trkpt>
      <trkpt lat="43.19874" lon="6.02269">
        <ele>241.91</ele>
        <time>2022-09-17T07:54:09Z</time>
      </trkpt>
      <trkpt lat="43.1989" lon="6.02282">
        <ele>241.43</ele>
        <time>2022-09-17T07:54:12Z</time>
      </trkpt>
      <trkpt lat="43.19893" lon="6.02286">
        <ele>241.43</ele>
        <time>2022-09-17T07:54:13Z</time>
      </trkpt>
      <trkpt lat="43.19894" lon="6.02292">
        <ele>240.95</ele>
        <time>2022-09-17T07:54:14Z</time>
      </trkpt>
      <trkpt lat="43.19895" lon="6.02298">
        <ele>239.99</ele>
        <time>2022-09-17T07:54:15Z</time>
      </trkpt>
      <trkpt lat="43.19894" lon="6.02303">
        <ele>239.51</ele>
        <time>2022-09-17T07:54:16Z</time>
      </trkpt>
      <trkpt lat="43.19893" lon="6.02309">
        <ele>239.02</ele>
        <time>2022-09-17T07:54:17Z</time>
      </trkpt>
      <trkpt lat="43.19876" lon="6.02331">
        <ele>236.62</ele>
        <time>2022-09-17T07:54:24Z</time>
      </trkpt>
      <trkpt lat="43.19872" lon="6.02335">
        <ele>236.14</ele>
        <time>2022-09-17T07:54:25Z</time>
      </trkpt>
      <trkpt lat="43.19868" lon="6.02338">
        <ele>235.66</ele>
        <time>2022-09-17T07:54:26Z</time>
      </trkpt>
      <trkpt lat="43.19863" lon="6.0234">
        <ele>234.7</ele>
        <time>2022-09-17T07:54:27Z</time>
      </trkpt>
      <trkpt lat="43.19858" lon="6.02342">
        <ele>234.22</ele>
        <time>2022-09-17T07:54:28Z</time>
      </trkpt>
      <trkpt lat="43.19852" lon="6.02343">
        <ele>234.22</ele>
        <time>2022-09-17T07:54:29Z</time>
      </trkpt>
      <trkpt lat="43.19834" lon="6.02349">
        <ele>232.3</ele>
        <time>2022-09-17T07:54:32Z</time>
      </trkpt>
      <trkpt lat="43.19828" lon="6.02353">
        <ele>231.81</ele>
        <time>2022-09-17T07:54:33Z</time>
      </trkpt>
      <trkpt lat="43.19822" lon="6.02358">
        <ele>230.37</ele>
        <time>2022-09-17T07:54:34Z</time>
      </trkpt>
      <trkpt lat="43.1979" lon="6.02388">
        <ele>226.53</ele>
        <time>2022-09-17T07:54:39Z</time>
      </trkpt>
      <trkpt lat="43.19778" lon="6.02404">
        <ele>225.57</ele>
        <time>2022-09-17T07:54:41Z</time>
      </trkpt>
      <trkpt lat="43.19772" lon="6.02413">
        <ele>224.61</ele>
        <time>2022-09-17T07:54:42Z</time>
      </trkpt>
      <trkpt lat="43.19769" lon="6.02425">
        <ele>224.12</ele>
        <time>2022-09-17T07:54:43Z</time>
      </trkpt>
      <trkpt lat="43.19721" lon="6.02548">
        <ele>217.4</ele>
        <time>2022-09-17T07:54:54Z</time>
      </trkpt>
      <trkpt lat="43.19676" lon="6.02597">
        <ele>214.03</ele>
        <time>2022-09-17T07:55:01Z</time>
      </trkpt>
      <trkpt lat="43.1967" lon="6.026">
        <ele>214.03</ele>
        <time>2022-09-17T07:55:02Z</time>
      </trkpt>
      <trkpt lat="43.19656" lon="6.02604">
        <ele>213.07</ele>
        <time>2022-09-17T07:55:04Z</time>
      </trkpt>
      <trkpt lat="43.19585" lon="6.0263">
        <ele>208.74</ele>
        <time>2022-09-17T07:55:13Z</time>
      </trkpt>
      <trkpt lat="43.19577" lon="6.02632">
        <ele>207.78</ele>
        <time>2022-09-17T07:55:14Z</time>
      </trkpt>
      <trkpt lat="43.19568" lon="6.02633">
        <ele>207.3</ele>
        <time>2022-09-17T07:55:15Z</time>
      </trkpt>
      <trkpt lat="43.19553" lon="6.02633">
        <ele>205.38</ele>
        <time>2022-09-17T07:55:17Z</time>
      </trkpt>
      <trkpt lat="43.19546" lon="6.02631">
        <ele>204.42</ele>
        <time>2022-09-17T07:55:18Z</time>
      </trkpt>
      <trkpt lat="43.1954" lon="6.02629">
        <ele>203.94</ele>
        <time>2022-09-17T07:55:19Z</time>
      </trkpt>
      <trkpt lat="43.19535" lon="6.02627">
        <ele>203.46</ele>
        <time>2022-09-17T07:55:20Z</time>
      </trkpt>
      <trkpt lat="43.19529" lon="6.02624">
        <ele>202.98</ele>
        <time>2022-09-17T07:55:21Z</time>
      </trkpt>
      <trkpt lat="43.19502" lon="6.02617">
        <ele>200.57</ele>
        <time>2022-09-17T07:55:25Z</time>
      </trkpt>
      <trkpt lat="43.19496" lon="6.02615">
        <ele>200.57</ele>
        <time>2022-09-17T07:55:26Z</time>
      </trkpt>
      <trkpt lat="43.19482" lon="6.02608">
        <ele>200.09</ele>
        <time>2022-09-17T07:55:28Z</time>
      </trkpt>
      <trkpt lat="43.19477" lon="6.02603">
        <ele>199.61</ele>
        <time>2022-09-17T07:55:29Z</time>
      </trkpt>
      <trkpt lat="43.19472" lon="6.02597">
        <ele>198.65</ele>
        <time>2022-09-17T07:55:30Z</time>
      </trkpt>
      <trkpt lat="43.19467" lon="6.02591">
        <ele>198.17</ele>
        <time>2022-09-17T07:55:31Z</time>
      </trkpt>
      <trkpt lat="43.19464" lon="6.02584">
        <ele>198.17</ele>
        <time>2022-09-17T07:55:32Z</time>
      </trkpt>
      <trkpt lat="43.19444" lon="6.02556">
        <ele>197.21</ele>
        <time>2022-09-17T07:55:36Z</time>
      </trkpt>
      <trkpt lat="43.19438" lon="6.02549">
        <ele>196.73</ele>
        <time>2022-09-17T07:55:37Z</time>
      </trkpt>
      <trkpt lat="43.19431" lon="6.02544">
        <ele>195.77</ele>
        <time>2022-09-17T07:55:38Z</time>
      </trkpt>
      <trkpt lat="43.19423" lon="6.02541">
        <ele>195.28</ele>
        <time>2022-09-17T07:55:39Z</time>
      </trkpt>
      <trkpt lat="43.19415" lon="6.02539">
        <ele>194.8</ele>
        <time>2022-09-17T07:55:40Z</time>
      </trkpt>
      <trkpt lat="43.19406" lon="6.02537">
        <ele>193.84</ele>
        <time>2022-09-17T07:55:41Z</time>
      </trkpt>
      <trkpt lat="43.19385" lon="6.02533">
        <ele>191.92</ele>
        <time>2022-09-17T07:55:44Z</time>
      </trkpt>
      <trkpt lat="43.19378" lon="6.0253">
        <ele>191.44</ele>
        <time>2022-09-17T07:55:45Z</time>
      </trkpt>
      <trkpt lat="43.19366" lon="6.02524">
        <ele>190.48</ele>
        <time>2022-09-17T07:55:47Z</time>
      </trkpt>
      <trkpt lat="43.1936" lon="6.0252">
        <ele>190</ele>
        <time>2022-09-17T07:55:48Z</time>
      </trkpt>
      <trkpt lat="43.19355" lon="6.02515">
        <ele>189.52</ele>
        <time>2022-09-17T07:55:49Z</time>
      </trkpt>
      <trkpt lat="43.1935" lon="6.02512">
        <ele>189.04</ele>
        <time>2022-09-17T07:55:50Z</time>
      </trkpt>
      <trkpt lat="43.19344" lon="6.0251">
        <ele>189.04</ele>
        <time>2022-09-17T07:55:51Z</time>
      </trkpt>
      <trkpt lat="43.19339" lon="6.02511">
        <ele>188.56</ele>
        <time>2022-09-17T07:55:52Z</time>
      </trkpt>
      <trkpt lat="43.19335" lon="6.02515">
        <ele>188.56</ele>
        <time>2022-09-17T07:55:53Z</time>
      </trkpt>
      <trkpt lat="43.19331" lon="6.02522">
        <ele>188.08</ele>
        <time>2022-09-17T07:55:54Z</time>
      </trkpt>
      <trkpt lat="43.19328" lon="6.02529">
        <ele>187.59</ele>
        <time>2022-09-17T07:55:55Z</time>
      </trkpt>
      <trkpt lat="43.19325" lon="6.02536">
        <ele>187.11</ele>
        <time>2022-09-17T07:55:56Z</time>
      </trkpt>
      <trkpt lat="43.19322" lon="6.02544">
        <ele>186.63</ele>
        <time>2022-09-17T07:55:57Z</time>
      </trkpt>
      <trkpt lat="43.19319" lon="6.02552">
        <ele>186.15</ele>
        <time>2022-09-17T07:55:58Z</time>
      </trkpt>
      <trkpt lat="43.19316" lon="6.02562">
        <ele>185.67</ele>
        <time>2022-09-17T07:55:59Z</time>
      </trkpt>
      <trkpt lat="43.19314" lon="6.0257">
        <ele>184.71</ele>
        <time>2022-09-17T07:56:00Z</time>
      </trkpt>
      <trkpt lat="43.19311" lon="6.02579">
        <ele>184.23</ele>
        <time>2022-09-17T07:56:01Z</time>
      </trkpt>
      <trkpt lat="43.19308" lon="6.02586">
        <ele>183.27</ele>
        <time>2022-09-17T07:56:02Z</time>
      </trkpt>
      <trkpt lat="43.19305" lon="6.02592">
        <ele>182.79</ele>
        <time>2022-09-17T07:56:03Z</time>
      </trkpt>
      <trkpt lat="43.19302" lon="6.02597">
        <ele>182.31</ele>
        <time>2022-09-17T07:56:04Z</time>
      </trkpt>
      <trkpt lat="43.19299" lon="6.02601">
        <ele>181.83</ele>
        <time>2022-09-17T07:56:05Z</time>
      </trkpt>
    </trkseg>
  </trk>
</gpx>